Flight Track Log - Related Links

Times and Time Zones

All times are in EDT time to prevent confusion due to time zone crossing. See the ASQ5025 flight status page for this flight to view local times or setup timezone preferences in your user account.

Time Position Orientation Groundspeed Altitude Reporting Facility
EDT Latitude Longitude Course Direction KTS MPH feet Rate Location/Type
Tue 09:44:30 AM 40.7667 -73.8500 70° East 156 180 1,500  Level New York TRACON
Tue 09:46:51 AM 40.7922 -73.7558 70° East 146 168 7,400 2,687 Climbing Boston Center
Tue 09:47:51 AM 40.8614 -73.7106 26° Northeast 213 245 10,500 2,550 Climbing Boston Center
Tue 09:48:51 AM 40.9453 -73.6603 24° Northeast 282 325 12,500 1,900 Climbing Boston Center
Tue 09:49:51 AM 41.0336 -73.5958 29° Northeast 316 364 14,300 1,850 Climbing Boston Center
Tue 09:50:51 AM 41.1281 -73.5203 31° Northeast 377 434 16,200 1,800 Climbing Boston Center
Tue 09:51:51 AM 41.2247 -73.4419 31° Northeast 396 456 17,900 1,400 Climbing Boston Center
Tue 09:52:51 AM 41.3275 -73.3606 31° Northeast 422 486 19,000 1,300 Climbing Boston Center
Tue 09:53:51 AM 41.4219 -73.2817 32° Northeast 432 497 20,500 1,650 Climbing Boston Center
Tue 09:54:51 AM 41.5289 -73.1969 31° Northeast 437 503 22,300 1,700 Climbing Boston Center
Tue 09:55:51 AM 41.6642 -73.2069 357° North 422 486 23,900 1,500 Climbing Boston Center
Tue 09:56:51 AM 41.7933 -73.2197 356° North 438 504 25,300 1,400 Climbing Boston Center
Tue 09:57:51 AM 41.9267 -73.2353 355° North 459 528 26,700 850 Climbing Boston Center
Tue 09:58:51 AM 42.0619 -73.2483 356° North 474 545 27,000 150 Climbing Boston Center
Tue 09:59:51 AM 42.2036 -73.2642 355° North 496 571 27,000  Level Boston Center
Tue 10:00:51 AM 42.3181 -73.2767 355° North 507 583 27,000  Level Boston Center
Tue 10:01:51 AM 42.4764 -73.2844 358° North 512 589 27,000  Level Boston Center
Tue 10:02:51 AM 42.6283 -73.3092 353° North 512 589 27,000  Level Boston Center
Tue 10:03:51 AM 42.7658 -73.3225 356° North 506 582 27,000  Level Boston Center
Tue 10:04:51 AM 42.9053 -73.3386 355° North 501 577 27,000 -400 Level Boston Center
Tue 10:05:51 AM 43.0428 -73.3406 359° North 496 571 26,200 -850 Descending Boston Center
Tue 10:06:51 AM 43.1492 -73.3281 North 491 565 25,300 -1,000 Descending Boston Center
Tue 10:07:51 AM 43.2869 -73.3100 North 477 549 24,200 -850 Descending Boston Center
Tue 10:08:51 AM 43.4183 -73.2919 North 443 510 23,600 -1,450 Descending Boston Center
Tue 10:09:51 AM 43.5394 -73.2764 North 430 495 21,300 -2,250 Descending Boston Center
Tue 10:10:51 AM 43.6519 -73.2608 North 420 483 19,100 -2,050 Descending Boston Center
Tue 10:11:51 AM 43.7647 -73.2478 North 407 468 17,200 -2,100 Descending Boston Center
Tue 10:12:51 AM 43.8669 -73.2350 North 391 450 14,900 -2,300 Descending Boston Center
Tue 10:13:51 AM 43.9689 -73.2506 354° North 369 425 12,600 -1,950 Descending Boston Center
Tue 10:14:51 AM 44.0606 -73.2489 North 343 395 11,000 -1,650 Descending Boston Center
Tue 10:15:51 AM 44.1400 -73.2183 15° North 311 358 9,300 -1,800 Descending Boston Center
Tue 10:16:51 AM 44.2169 -73.2394 349° North 283 326 7,400 -1,800 Descending Boston Center
Tue 10:17:51 AM 44.2856 -73.2608 347° North 283 326 5,700 -1,650 Descending Boston Center
Tue 10:18:51 AM 44.3686 -73.2853 348° North 276 318 4,100 -1,000 Descending Boston Center
Tue 10:19:51 AM 44.4353 -73.3036 349° North 266 306 3,700 -700 Descending Boston Center
Tue 10:20:51 AM 44.4872 -73.2928 North 202 232 2,700 -800 Descending Boston Center
Tue 10:21:51 AM 44.5189 -73.2494 44° Northeast 159 183 2,100 -750 Descending Boston Center
Tue 10:22:51 AM 44.5067 -73.2056 111° Southeast 109 125 1,200 -900 Descending Boston Center

Login

Don't have an account? Register now (free) for customized features, flight alerts, and more!